West Lebanon, Indiana
Current Conditions -  °F | °C
As of 1:35 PM on Sunday 23 Nov 2014 (Local Time) from KDNV Reporting Station
Light Rain Light Rain  
Wind Chill: 51°   Ceiling: 700
Heat Index: 51°   Visibility: 7mi
Dew Point: 49°   Wind: 13mph
Humidity: 94%   Direction: 150°SSE
Pressure: 29.59"   Gusts: NA
Location:  40.27°N, 87.39°W
Report Text: KDNV 231835Z AUTO 15011KT 7SM -RA OVC007 11/10 A2959 RMK AO2 T01050096
Loading
Personal Weather Stations






























Interactive Weather Map New forecast layout! Learn more

10-Day Weather Forecast

Advertisements
Track Severe Weather on mobile